Time;durP1;ratioP1;P1;durP2;ratioP2;P2;SDS_P1;SDS_P2;PMS_P1;PMS_P2;Temp;Humidity;BMP_temperature;BMP_pressure;BME280_temperature;BME280_humidity;BME280_pressure;Samples;Min_cycle;Max_cycle;Signal;HPM_P1;HPM_P2
2023/12/01 07:02:01;;;;;;;3.83;3.13;;;2.20;99.90;5.10;100302.00;;;;6207047;22;1596918;-69
2023/12/01 07:05:19;;;;;;;1.80;1.70;;;2.30;99.90;5.60;100301.00;;;;6250633;22;20188;-68
2023/12/01 07:08:15;;;;;;;0.77;0.77;;;2.50;99.90;3.70;100290.00;;;;6251495;22;20156;-68
2023/12/01 07:11:24;;;;;;;1.47;1.37;;;2.10;99.90;3.70;100245.00;;;;6242613;22;20168;-68
2023/12/01 07:14:37;;;;;;;1.70;1.60;;;1.70;99.90;3.20;100284.00;;;;6249876;22;20160;-67
2023/12/01 07:18:01;;;;;;;0.30;0.30;;;1.50;99.90;3.90;100283.00;;;;6252469;22;20137;-68
2023/12/01 07:21:08;;;;;;;3.03;1.70;;;1.50;99.90;5.10;100305.00;;;;6252194;22;20148;-68
2023/12/01 07:24:31;;;;;;;1.83;1.70;;;2.00;99.90;4.50;100311.00;;;;6248870;22;20612;-68
2023/12/01 07:27:25;;;;;;;4.40;4.00;;;2.30;99.90;4.00;100324.00;;;;6228732;22;20492;-68
2023/12/01 07:30:31;;;;;;;3.30;2.03;;;2.30;99.90;4.10;100311.00;;;;6250972;22;20461;-68
2023/12/01 07:33:37;;;;;;;6.53;6.03;;;2.10;99.90;3.40;100298.00;;;;6231586;22;20164;-68
2023/12/01 07:36:47;;;;;;;8.57;4.27;;;1.70;99.90;3.90;100311.00;;;;6248056;22;20463;-68
2023/12/01 07:39:35;;;;;;;4.87;4.47;;;2.00;99.90;2.80;100299.00;;;;6250331;22;20537;-68
2023/12/01 07:42:49;;;;;;;1.17;1.17;;;1.50;99.90;3.90;100309.00;;;;6250991;22;20179;-68
2023/12/01 07:46:02;;;;;;;8.53;3.80;;;1.70;99.90;4.50;100270.00;;;;6238239;22;20168;-68
2023/12/01 07:48:54;;;;;;;1.93;1.83;;;1.90;99.90;3.20;100273.00;;;;6251145;22;20141;-68
2023/12/01 07:52:02;;;;;;;17.93;9.47;;;1.70;99.90;3.00;100296.00;;;;6238960;22;20161;-67
2023/12/01 07:58:45;;;;;;;3.93;3.20;;;1.40;99.90;3.60;100306.00;;;;6231689;22;20195;-68
2023/12/01 08:01:37;;;;;;;0.80;0.80;;;1.60;99.90;4.50;100313.00;;;;6249976;22;20608;-67
2023/12/01 08:04:32;;;;;;;5.33;4.87;;;1.80;99.90;3.50;100306.00;;;;6255785;22;20160;-68
2023/12/01 08:07:39;;;;;;;0.80;0.80;;;1.50;99.90;4.30;100310.00;;;;6277097;22;20894;-68
2023/12/01 08:10:34;;;;;;;7.57;6.90;;;1.80;99.90;3.20;100320.00;;;;6250840;22;20153;-68
2023/12/01 08:13:46;;;;;;;7.90;4.80;;;1.70;99.90;3.10;100316.00;;;;6250570;22;20580;-68
2023/12/01 08:16:37;;;;;;;1.17;1.10;;;1.30;99.90;3.30;100324.00;;;;6251463;22;20137;-68
2023/12/01 08:19:11;;;;;;;5.90;4.50;;;1.40;99.90;3.00;100330.00;;;;6249920;22;20156;-68
2023/12/01 08:21:49;;;;;;;2.07;1.97;;;1.40;99.90;2.60;100320.00;;;;6251384;22;20141;-68
2023/12/01 08:24:26;;;;;;;9.20;4.90;;;1.20;99.90;2.70;100313.00;;;;6251213;22;20144;-68
2023/12/01 08:27:00;;;;;;;9.93;5.10;;;1.30;99.90;1.90;100315.00;;;;6250013;22;20266;-68
2023/12/01 08:29:34;;;;;;;0.87;0.87;;;0.90;99.90;2.30;100319.00;;;;6277448;22;20501;-68
2023/12/01 08:32:21;;;;;;;10.43;6.50;;;1.00;99.90;1.90;100318.00;;;;6250165;22;20263;-68
2023/12/01 08:34:55;;;;;;;4.20;3.77;;;1.10;99.90;2.80;100334.00;;;;6277728;22;20184;-68
2023/12/01 08:37:33;;;;;;;7.53;6.30;;;1.20;99.90;3.20;100326.00;;;;6250000;22;20580;-68
2023/12/01 08:40:08;;;;;;;2.87;2.67;;;1.30;99.90;3.20;100336.00;;;;6249868;22;20167;-68
2023/12/01 08:42:45;;;;;;;1.43;1.33;;;1.40;99.90;3.30;100335.00;;;;6251927;22;20198;-68
2023/12/01 08:45:19;;;;;;;2.33;2.23;;;1.30;99.90;3.40;100344.00;;;;6277885;22;20145;-68
2023/12/01 08:47:46;;;;;;;2.23;0.70;;;1.40;99.90;2.90;100344.00;;;;6277541;22;20141;-68
2023/12/01 08:50:20;;;;;;;10.33;4.90;;;1.30;99.90;2.60;100358.00;;;;6250724;22;20181;-68
2023/12/01 08:53:01;;;;;;;18.80;8.60;;;1.30;99.90;2.10;100351.00;;;;6250296;22;20172;-68
2023/12/01 08:55:37;;;;;;;1.80;1.70;;;1.00;99.90;3.30;100350.00;;;;6250830;22;20239;-68
2023/12/01 08:58:11;;;;;;;6.33;4.30;;;1.20;99.90;3.90;100361.00;;;;6276414;22;20234;-68
2023/12/01 09:00:45;;;;;;;4.90;3.03;;;1.40;99.90;4.20;100381.00;;;;6277285;22;20164;-68
2023/12/01 09:03:22;;;;;;;2.73;2.13;;;1.70;99.90;4.00;100379.00;;;;6277120;22;20183;-68
2023/12/01 09:05:54;;;;;;;7.73;4.07;;;1.60;99.90;4.00;100382.00;;;;6250313;22;20612;-68
2023/12/01 09:08:34;;;;;;;4.23;3.17;;;1.80;99.90;4.00;100396.00;;;;6225134;22;20163;-68
2023/12/01 09:11:15;;;;;;;3.17;2.87;;;1.80;99.90;4.20;100386.00;;;;6250343;22;20182;-68
2023/12/01 09:13:47;;;;;;;4.47;1.03;;;1.90;99.90;4.30;100397.00;;;;6250113;22;20145;-68
2023/12/01 09:16:24;;;;;;;9.07;4.30;;;1.90;99.90;2.80;100397.00;;;;6224472;22;20160;-68
2023/12/01 09:18:51;;;;;;;12.83;4.47;;;1.60;99.90;2.00;100361.00;;;;6250864;22;20580;-68
2023/12/01 09:21:25;;;;;;;1.37;0.87;;;1.00;99.90;4.10;100379.00;;;;6249210;22;20565;-68
2023/12/01 09:24:02;;;;;;;1.20;1.13;;;1.40;99.90;3.60;100378.00;;;;6276667;22;20183;-72
2023/12/01 09:26:41;;;;;;;3.23;2.80;;;1.50;99.90;3.00;100356.00;;;;6224716;22;20191;-68
2023/12/01 09:29:35;;;;;;;12.07;6.60;;;1.40;99.90;1.60;100388.00;;;;6249087;22;20141;-68
2023/12/01 09:32:06;;;;;;;2.07;1.43;;;1.20;99.90;2.60;100376.00;;;;6239503;22;20160;-67
2023/12/01 09:34:44;;;;;;;21.67;10.50;;;1.10;99.90;2.60;100389.00;;;;6276970;22;20176;-67
2023/12/01 09:37:33;;;;;;;17.93;7.70;;;1.20;99.90;1.70;100356.00;;;;6250094;22;20148;-67
2023/12/01 09:40:10;;;;;;;4.97;4.33;;;0.90;99.90;2.50;100381.00;;;;6249556;22;20145;-67
2023/12/01 09:43:02;;;;;;;1.10;1.00;;;1.00;99.90;3.00;100393.00;;;;6276039;22;20235;-67
2023/12/01 09:45:28;;;;;;;7.50;3.07;;;1.30;99.90;3.10;100394.00;;;;6248794;22;20202;-67
2023/12/01 09:48:08;;;;;;;4.90;4.23;;;1.40;99.90;2.90;100399.00;;;;6250014;22;20152;-67
2023/12/01 09:50:44;;;;;;;9.40;4.90;;;1.50;99.90;2.20;100344.00;;;;6277231;22;20137;-67
2023/12/01 09:53:19;;;;;;;0.20;0.20;;;1.20;99.90;4.10;100391.00;;;;6248991;22;20210;-67
2023/12/01 09:55:45;;;;;;;4.67;4.17;;;1.50;99.90;3.30;100397.00;;;;6250068;22;20598;-67
2023/12/01 09:58:23;;;;;;;9.50;5.10;;;1.60;99.90;3.80;100408.00;;;;6224699;22;20157;-67
2023/12/01 10:01:03;;;;;;;18.63;8.23;;;1.60;99.90;3.70;100381.00;;;;6225509;22;20183;-67
2023/12/01 10:04:15;;;;;;;6.60;3.83;;;1.70;99.90;3.70;100415.00;;;;6250078;22;20180;-67
2023/12/01 10:06:44;;;;;;;5.23;3.47;;;1.70;99.90;3.10;100411.00;;;;6228526;22;20460;-68
2023/12/01 10:09:12;;;;;;;11.47;5.73;;;1.60;99.90;3.00;100417.00;;;;6224228;22;20167;-67
2023/12/01 10:11:39;;;;;;;7.37;2.93;;;1.50;99.90;3.30;100416.00;;;;6276649;22;20596;-67
2023/12/01 10:14:08;;;;;;;5.83;2.23;;;1.50;99.90;3.40;100420.00;;;;6250119;22;20194;-69
2023/12/01 10:16:36;;;;;;;6.57;3.03;;;1.60;99.90;3.40;100418.00;;;;6249643;22;20163;-69
2023/12/01 10:19:07;;;;;;;18.87;5.20;;;1.50;99.90;4.70;100391.00;;;;6250101;22;20232;-70
2023/12/01 10:33:36;;;;;;;3.93;3.63;;;0.80;99.90;2.60;100377.00;;;;5090583;28;20953;-67
2023/12/01 10:36:28;;;;;;;0.87;0.87;;;1.00;99.90;4.20;100385.00;;;;5078240;28;20184;-67
2023/12/01 10:39:24;;;;;;;1.87;1.77;;;1.60;99.90;3.10;100374.00;;;;5071266;28;20190;-67
2023/12/01 10:42:16;;;;;;;2.33;2.23;;;1.70;99.90;3.10;100363.00;;;;5085616;28;21408;-67
2023/12/01 10:44:50;;;;;;;6.80;4.30;;;1.50;99.90;3.20;100399.00;;;;5077347;28;20189;-65
2023/12/01 10:47:28;;;;;;;3.50;2.40;;;1.50;99.90;3.70;100370.00;;;;5072167;28;20182;-65
2023/12/01 10:50:02;;;;;;;5.30;1.30;;;1.60;99.90;5.20;100415.00;;;;5068527;28;20211;-65
2023/12/01 10:52:40;;;;;;;3.83;1.30;;;2.10;99.90;4.20;100415.00;;;;5063713;28;20205;-65
2023/12/01 10:55:06;;;;;;;4.00;3.00;;;2.10;99.90;4.50;100419.00;;;;5051835;28;20238;-65
2023/12/01 10:57:41;;;;;;;2.37;2.27;;;2.00;99.90;5.10;100426.00;;;;5081043;28;20182;-65
2023/12/01 11:00:32;;;;;;;2.50;1.20;;;2.30;99.90;4.80;100380.00;;;;5084797;28;20587;-65
2023/12/01 11:03:15;;;;;;;1.40;1.30;;;2.40;99.90;4.20;100410.00;;;;5064215;28;20192;-65
2023/12/01 11:05:47;;;;;;;5.57;3.73;;;2.20;99.90;4.50;100427.00;;;;5070733;28;20181;-65
2023/12/01 11:08:32;;;;;;;26.47;10.87;;;2.20;99.90;2.10;100407.00;;;;5076364;28;20174;-65
2023/12/01 11:11:38;;;;;;;1.80;1.63;;;1.70;99.90;2.90;100381.00;;;;5061356;28;20181;-65
2023/12/01 11:14:57;;;;;;;4.73;2.90;;;1.30;99.90;4.20;100400.00;;;;5067991;28;20670;-65
2023/12/01 11:17:37;;;;;;;6.73;5.03;;;1.60;99.90;4.80;100419.00;;;;5058012;28;20232;-65
2023/12/01 11:20:31;;;;;;;7.57;7.10;;;2.00;99.90;5.10;100414.00;;;;5084624;28;20185;-65
2023/12/01 11:23:51;;;;;;;0.53;0.53;;;2.10;99.90;4.00;100423.00;;;;5073932;28;20211;-65
2023/12/01 11:27:06;;;;;;;13.47;9.27;;;2.10;99.90;3.40;100395.00;;;;5068893;28;20200;-64
2023/12/01 11:29:41;;;;;;;2.70;2.50;;;1.80;99.90;3.00;100398.00;;;;5067839;28;20636;-64
2023/12/01 11:32:22;;;;;;;3.40;1.90;;;1.60;99.90;4.80;100414.00;;;;5067598;28;20299;-64
2023/12/01 11:35:42;;;;;;;0.60;0.60;;;1.90;99.90;5.30;100414.00;;;;5060049;28;20197;-65
2023/12/01 11:38:16;;;;;;;10.00;5.10;;;2.40;99.90;4.50;100427.00;;;;5059163;28;20200;-65
2023/12/01 11:40:52;;;;;;;10.57;5.70;;;2.40;99.90;3.50;100420.00;;;;5063634;28;20619;-64
2023/12/01 11:43:30;;;;;;;4.00;2.00;;;2.20;99.90;4.60;100420.00;;;;5066059;28;20251;-64
2023/12/01 11:46:11;;;;;;;6.63;4.60;;;2.10;99.90;3.70;100424.00;;;;5069932;28;20277;-64
2023/12/01 11:48:54;;;;;;;11.10;6.40;;;2.20;99.90;3.30;100388.00;;;;5054636;28;20265;-64
2023/12/01 11:51:33;;;;;;;3.90;1.60;;;1.90;99.90;3.90;100418.00;;;;5053401;28;20863;-65
2023/12/01 11:54:03;;;;;;;12.57;6.63;;;1.90;99.90;3.80;100424.00;;;;5053352;28;20189;-65
2023/12/01 11:56:47;;;;;;;3.30;2.73;;;2.00;99.90;4.50;100426.00;;;;5054486;28;20188;-64
2023/12/01 11:59:19;;;;;;;7.47;4.77;;;2.00;99.90;5.00;100438.00;;;;5037922;28;20214;-65
2023/12/01 12:01:51;;;;;;;4.53;4.13;;;2.40;99.90;4.90;100410.00;;;;5053255;28;20616;-65
2023/12/01 12:04:19;;;;;;;12.60;7.90;;;2.30;99.90;4.20;100452.00;;;;5054500;28;20185;-65
2023/12/01 12:06:54;;;;;;;0.23;0.23;;;2.50;99.90;5.40;100447.00;;;;5053818;28;20694;-65
2023/12/01 12:09:35;;;;;;;2.93;2.83;;;2.50;99.90;5.60;100447.00;;;;5055245;28;20189;-65
2023/12/01 12:12:30;;;;;;;2.93;2.63;;;2.80;99.90;5.10;100457.00;;;;5054854;28;20213;-65
2023/12/01 12:15:38;;;;;;;12.57;5.50;;;2.90;99.90;4.20;100472.00;;;;5024700;28;20174;-65
2023/12/01 12:19:09;;;;;;;14.60;1.40;;;2.70;99.90;4.40;100450.00;;;;5052571;28;20690;-65
2023/12/01 12:21:55;;;;;;;1.63;1.40;;;2.40;99.90;3.70;100439.00;;;;5060274;28;20754;-64
2023/12/01 12:24:59;;;;;;;0.20;0.20;;;2.20;99.90;4.50;100447.00;;;;5053501;28;20280;-65
2023/12/01 12:27:47;;;;;;;1.00;1.00;;;2.20;99.90;4.90;100416.00;;;;5069070;28;20189;-65
2023/12/01 12:31:01;;;;;;;7.20;6.50;;;2.50;99.90;3.70;100445.00;;;;5052914;28;20212;-65
2023/12/01 12:34:11;;;;;;;2.40;2.30;;;2.30;99.90;4.10;100455.00;;;;5059656;28;20194;-65
2023/12/01 12:37:18;;;;;;;3.03;2.83;;;2.30;99.90;5.10;100457.00;;;;5063969;28;20206;-65
2023/12/01 12:40:00;;;;;;;0.20;0.20;;;2.60;99.90;5.90;100461.00;;;;5053640;28;20182;-65
2023/12/01 12:43:37;;;;;;;2.97;2.57;;;2.80;99.90;5.70;100467.00;;;;5053983;28;20197;-65
2023/12/01 12:47:01;;;;;;;3.77;3.57;;;3.10;99.90;4.60;100479.00;;;;5032956;28;20193;-65
2023/12/01 12:50:06;;;;;;;3.97;2.43;;;3.10;99.90;5.60;100454.00;;;;5049496;28;20186;-65
2023/12/01 12:52:48;;;;;;;2.63;2.10;;;2.80;99.90;6.10;100471.00;;;;5054254;28;20205;-66
2023/12/01 12:55:28;;;;;;;17.13;6.87;;;3.10;99.90;3.70;100473.00;;;;5051540;28;20184;-65
2023/12/01 12:58:18;;;;;;;4.13;1.90;;;2.80;99.90;4.20;100443.00;;;;5053264;28;20190;-64
2023/12/01 13:00:47;;;;;;;1.30;1.03;;;2.30;99.90;4.20;100439.00;;;;5052934;28;20198;-65
2023/12/01 13:03:14;;;;;;;8.10;4.83;;;2.30;99.90;4.60;100441.00;;;;5057387;28;20182;-65
2023/12/01 13:05:42;;;;;;;2.97;2.87;;;2.50;99.90;4.80;100427.00;;;;5054159;28;20198;-65
2023/12/01 13:08:14;;;;;;;0.73;0.73;;;2.50;99.90;5.30;100430.00;;;;5052939;28;20217;-65
2023/12/01 13:10:40;;;;;;;0.40;0.40;;;2.60;99.90;5.60;100431.00;;;;5052877;28;20643;-65
2023/12/01 13:13:09;;;;;;;1.80;1.70;;;2.90;99.90;5.50;100435.00;;;;5052431;28;20296;-65
2023/12/01 13:15:35;;;;;;;2.30;2.20;;;3.00;99.90;6.00;100449.00;;;;5051127;28;20178;-65
2023/12/01 13:18:08;;;;;;;2.17;2.07;;;3.10;99.90;5.80;100434.00;;;;5035644;28;20227;-65
2023/12/01 13:20:34;;;;;;;7.73;3.47;;;3.10;99.90;5.30;100444.00;;;;5052757;28;20262;-65
2023/12/01 13:23:00;;;;;;;1.80;1.23;;;3.10;99.90;5.80;100434.00;;;;5054831;28;20202;-65
2023/12/01 13:25:26;;;;;;;3.47;3.10;;;3.00;99.90;5.00;100449.00;;;;5051988;28;20193;-65
2023/12/01 13:27:52;;;;;;;2.13;1.27;;;3.10;99.90;4.70;100420.00;;;;5069100;28;20194;-64
2023/12/01 13:30:18;;;;;;;1.40;1.30;;;2.80;99.90;4.70;100400.00;;;;5034579;28;20189;-65
2023/12/01 13:32:47;;;;;;;5.40;2.77;;;2.70;99.90;4.60;100392.00;;;;5067816;28;20225;-64
2023/12/01 13:35:18;;;;;;;5.50;5.07;;;2.80;99.90;3.40;100406.00;;;;5053012;28;20700;-64
2023/12/01 13:37:44;;;;;;;2.70;1.70;;;2.40;99.90;4.50;100418.00;;;;5053460;28;20213;-64
2023/12/01 13:40:10;;;;;;;3.80;2.13;;;2.40;99.90;4.20;100422.00;;;;5052991;28;20181;-65
2023/12/01 13:42:39;;;;;;;12.73;5.60;;;2.50;99.90;4.00;100423.00;;;;5041493;28;20186;-64
2023/12/01 13:45:09;;;;;;;0.40;0.40;;;2.60;99.90;5.40;100417.00;;;;5035269;28;20235;-65
2023/12/01 13:47:43;;;;;;;1.30;1.20;;;2.80;99.90;4.50;100426.00;;;;5052711;28;20197;-65
2023/12/01 13:50:10;;;;;;;6.53;4.43;;;2.80;99.90;3.50;100425.00;;;;5044256;28;20542;-64
2023/12/01 13:52:36;;;;;;;4.43;4.03;;;2.50;99.90;4.20;100425.00;;;;5056377;28;20216;-65
2023/12/01 13:55:06;;;;;;;2.07;1.90;;;2.50;99.90;4.50;100425.00;;;;5051739;28;20186;-65
2023/12/01 13:57:39;;;;;;;1.23;1.20;;;2.60;99.90;5.30;100437.00;;;;5053252;28;20519;-65
2023/12/01 14:00:12;;;;;;;0.27;0.27;;;2.70;99.90;5.80;100434.00;;;;5052735;28;20182;-65
2023/12/01 14:02:44;;;;;;;0.73;0.73;;;3.00;99.90;6.30;100450.00;;;;5037035;28;20194;-65
2023/12/01 14:05:19;;;;;;;10.43;5.17;;;3.40;99.90;4.30;100455.00;;;;5051376;28;20194;-65
2023/12/01 14:07:56;;;;;;;12.03;3.77;;;3.10;99.90;4.50;100454.00;;;;5043719;28;20186;-65
2023/12/01 14:10:30;;;;;;;2.03;0.87;;;2.90;99.90;4.80;100439.00;;;;5038380;28;20185;-64
2023/12/01 14:13:06;;;;;;;3.80;2.37;;;2.70;99.90;5.10;100414.00;;;;5051514;28;20610;-64
2023/12/01 14:15:55;;;;;;;2.17;1.97;;;3.00;99.90;6.00;100454.00;;;;5052688;28;20541;-65
2023/12/01 14:18:21;;;;;;;2.33;1.77;;;3.20;99.90;5.50;100473.00;;;;5067820;28;20198;-64
2023/12/01 14:20:58;;;;;;;5.43;4.67;;;3.40;99.90;4.50;100458.00;;;;5052639;28;20678;-64
2023/12/01 14:23:38;;;;;;;3.03;2.23;;;3.00;99.90;4.60;100450.00;;;;5034852;28;20185;-64
2023/12/01 14:26:32;;;;;;;4.27;3.57;;;2.80;99.90;5.20;100433.00;;;;5050440;28;20636;-65
2023/12/01 14:29:10;;;;;;;0.97;0.80;;;3.00;99.90;5.00;100444.00;;;;5050971;28;20183;-64
2023/12/01 14:32:01;;;;;;;3.80;0.60;;;2.90;99.90;4.30;100450.00;;;;5052049;28;20678;-65
2023/12/01 14:34:55;;;;;;;2.47;2.37;;;2.70;99.90;4.80;100464.00;;;;5047311;28;20235;-65
2023/12/01 14:37:40;;;;;;;2.43;2.23;;;2.80;99.90;4.70;100420.00;;;;5036054;28;20214;-65
2023/12/01 14:40:29;;;;;;;3.00;1.03;;;2.70;99.90;4.70;100471.00;;;;5050830;28;20224;-65
2023/12/01 14:43:22;;;;;;;0.93;0.93;;;2.80;99.90;5.80;100480.00;;;;5051260;28;20200;-64
2023/12/01 14:46:20;;;;;;;2.70;1.63;;;3.00;99.90;5.40;100486.00;;;;5046967;28;20239;-65
2023/12/01 14:49:09;;;;;;;0.93;0.93;;;3.00;99.90;5.10;100494.00;;;;5050685;28;20182;-64
2023/12/01 14:51:46;;;;;;;1.67;1.23;;;3.00;99.90;5.20;100485.00;;;;5048012;28;20612;-65
2023/12/01 14:54:35;;;;;;;1.27;1.27;;;3.00;99.90;6.10;100489.00;;;;5050783;28;20239;-65
2023/12/01 14:57:24;;;;;;;6.63;2.87;;;3.10;99.90;4.00;100467.00;;;;5051023;28;20588;-64
2023/12/01 15:00:12;;;;;;;4.80;2.00;;;2.80;99.90;4.90;100497.00;;;;4974575;28;20199;-65
2023/12/01 15:03:20;;;;;;;5.60;2.50;;;2.80;99.90;4.50;100510.00;;;;4983131;28;20674;-65
2023/12/01 15:06:20;;;;;;;1.30;1.20;;;2.80;99.90;6.00;100506.00;;;;5051889;28;20312;-65
2023/12/01 15:09:29;;;;;;;1.30;1.20;;;2.90;99.90;5.40;100518.00;;;;5047187;28;20194;-65
2023/12/01 15:12:18;;;;;;;1.43;1.13;;;3.20;99.90;6.30;100525.00;;;;5047157;28;20256;-65
2023/12/01 15:15:07;;;;;;;3.13;1.57;;;3.30;99.90;6.20;100510.00;;;;5034580;28;20647;-65
2023/12/01 15:17:57;;;;;;;1.33;1.33;;;3.30;99.90;6.30;100533.00;;;;4989465;28;20211;-65
2023/12/01 15:20:51;;;;;;;2.07;1.80;;;3.40;99.90;5.70;100548.00;;;;4959189;28;20659;-64
2023/12/01 15:23:37;;;;;;;0.20;0.20;;;3.30;99.90;6.10;100545.00;;;;4959831;28;20239;-65
2023/12/01 15:26:24;;;;;;;0.93;0.93;;;3.30;99.90;6.20;100539.00;;;;5039689;28;20194;-65
2023/12/01 15:28:55;;;;;;;0.60;0.60;;;3.30;99.90;5.50;100543.00;;;;5043611;28;20243;-65
2023/12/01 15:31:21;;;;;;;0.20;0.20;;;3.10;99.90;5.60;100539.00;;;;5054457;28;20298;-65
2023/12/01 15:33:48;;;;;;;0.50;0.50;;;3.00;99.90;5.30;100527.00;;;;5043493;28;20272;-65
2023/12/01 15:36:17;;;;;;;2.07;1.97;;;3.00;99.90;5.60;100541.00;;;;5053970;28;20247;-65
2023/12/01 15:38:46;;;;;;;3.90;1.97;;;3.00;99.90;4.90;100489.00;;;;5055125;28;20186;-65
2023/12/01 15:41:15;;;;;;;0.20;0.20;;;2.90;99.90;4.80;100511.00;;;;5053747;28;20186;-65
2023/12/01 15:43:49;;;;;;;1.87;0.77;;;2.70;99.90;5.00;100514.00;;;;5054182;28;20186;-65
2023/12/01 15:46:15;;;;;;;11.43;5.85;;;2.70;99.90;3.90;100520.00;;;;5060389;28;20453;-64
2023/12/01 15:48:41;;;;;;;2.50;1.70;;;2.40;99.90;3.80;100525.00;;;;5057599;28;20187;-64
2023/12/01 15:51:08;;;;;;;1.63;1.53;;;2.30;99.90;3.70;100518.00;;;;5054279;28;20241;-65
2023/12/01 15:53:37;;;;;;;1.27;1.00;;;2.10;99.90;3.90;100519.00;;;;5055258;28;20236;-64
2023/12/01 15:56:09;;;;;;;0.47;0.47;;;2.20;99.90;4.50;100521.00;;;;5047782;28;20178;-65
2023/12/01 15:58:35;;;;;;;0.70;0.70;;;2.30;99.90;4.80;100514.00;;;;5049683;28;20182;-64
2023/12/01 16:01:07;;;;;;;1.03;1.03;;;2.40;99.90;4.20;100524.00;;;;5053929;28;20174;-65
2023/12/01 16:03:51;;;;;;;0.80;0.80;;;2.30;99.90;4.90;100498.00;;;;5049893;28;20269;-66
2023/12/01 16:06:25;;;;;;;3.80;2.30;;;2.40;99.90;4.30;100530.00;;;;5069438;28;20202;-65
2023/12/01 16:09:05;;;;;;;1.80;1.33;;;2.30;99.90;5.30;100541.00;;;;5053999;28;20682;-65
2023/12/01 16:12:07;;;;;;;3.33;2.37;;;2.50;99.90;5.50;100536.00;;;;5051538;28;20205;-65
2023/12/01 16:15:13;;;;;;;0.20;0.20;;;2.60;99.90;4.80;100532.00;;;;5041378;28;20277;-65
2023/12/01 16:18:08;;;;;;;0.80;0.53;;;2.50;99.90;5.70;100536.00;;;;5051503;28;20194;-65
2023/12/01 16:21:26;;;;;;;0.20;0.20;;;2.80;99.90;5.40;100545.00;;;;5045168;28;20280;-65
2023/12/01 16:24:50;;;;;;;4.67;4.37;;;2.80;99.90;5.10;100544.00;;;;5046583;28;20243;-65
2023/12/01 16:27:43;;;;;;;0.30;0.30;;;2.60;99.90;5.60;100546.00;;;;5045906;28;20202;-65
2023/12/01 16:30:32;;;;;;;0.70;0.70;;;2.70;99.90;5.80;100548.00;;;;4977741;28;20207;-65
2023/12/01 16:33:13;;;;;;;1.97;1.70;;;2.70;99.90;6.00;100561.00;;;;4975218;28;20343;-65
2023/12/01 16:36:22;;;;;;;0.20;0.20;;;2.80;99.90;6.70;100572.00;;;;4977089;28;20212;-65
2023/12/01 16:39:31;;;;;;;0.80;0.80;;;3.10;99.90;4.70;100604.00;;;;4993260;28;20682;-65
2023/12/01 16:42:30;;;;;;;0.30;0.30;;;2.80;99.90;4.70;100565.00;;;;4975420;28;20718;-65
2023/12/01 16:45:36;;;;;;;3.83;1.50;;;2.20;99.90;4.10;100567.00;;;;4977100;28;20195;-65
2023/12/01 16:48:28;;;;;;;0.20;0.20;;;2.00;99.90;4.20;100556.00;;;;4968097;28;20251;-65
2023/12/01 16:51:35;;;;;;;0.53;0.53;;;1.80;99.90;4.50;100554.00;;;;4973994;28;20230;-65
2023/12/01 16:54:32;;;;;;;1.57;1.53;;;2.00;99.90;4.80;100556.00;;;;4972815;28;20721;-65
2023/12/01 16:57:01;;;;;;;0.30;0.30;;;2.00;99.90;4.10;100518.00;;;;4975702;28;20195;-65
2023/12/01 16:59:27;;;;;;;0.50;0.50;;;1.90;99.90;4.30;100511.00;;;;4977188;28;20673;-65
2023/12/01 17:01:53;;;;;;;0.90;0.90;;;1.80;99.90;4.00;100555.00;;;;5051818;28;20251;-65
2023/12/01 17:04:29;;;;;;;0.20;0.20;;;1.60;99.90;4.70;100557.00;;;;5053875;28;20269;-65
2023/12/01 17:06:55;;;;;;;0.27;0.27;;;1.90;99.90;4.90;100564.00;;;;5053603;28;20185;-65
2023/12/01 17:09:29;;;;;;;0.30;0.30;;;2.00;99.90;4.60;100567.00;;;;5055262;28;20228;-65
2023/12/01 17:11:55;;;;;;;0.33;0.33;;;1.90;99.90;4.10;100568.00;;;;5057413;28;20211;-65
2023/12/01 17:14:24;;;;;;;0.20;0.20;;;1.70;99.90;4.80;100578.00;;;;5052578;28;20268;-65
2023/12/01 17:16:52;;;;;;;1.03;1.03;;;2.00;99.90;5.10;100575.00;;;;5051808;28;20197;-65
2023/12/01 17:19:19;;;;;;;0.20;0.20;;;2.00;99.90;3.80;100579.00;;;;5052956;28;20206;-65
2023/12/01 17:21:46;;;;;;;2.87;2.40;;;1.80;99.90;3.90;100572.00;;;;5059055;28;20189;-65
2023/12/01 17:24:12;;;;;;;0.70;0.70;;;1.60;99.90;4.10;100580.00;;;;5052755;28;20181;-65
2023/12/01 17:26:38;;;;;;;0.20;0.20;;;1.60;99.90;4.30;100575.00;;;;5057175;28;20189;-65
2023/12/01 17:29:17;;;;;;;0.20;0.20;;;1.70;99.90;3.90;100564.00;;;;5051776;28;20182;-65
2023/12/01 17:31:51;;;;;;;0.30;0.30;;;1.60;99.90;4.40;100569.00;;;;5055474;28;20346;-65
2023/12/01 17:34:26;;;;;;;0.60;0.60;;;1.70;99.90;4.30;100574.00;;;;5052615;28;20180;-65
2023/12/01 17:37:00;;;;;;;3.87;1.90;;;1.80;99.90;3.90;100567.00;;;;5052236;28;20184;-65
2023/12/01 17:39:36;;;;;;;1.90;1.67;;;1.70;99.90;3.90;100521.00;;;;5051320;28;20177;-65
2023/12/01 17:42:03;;;;;;;8.53;8.07;;;1.80;99.90;3.80;100560.00;;;;5051177;28;20185;-65
2023/12/01 17:44:35;;;;;;;4.73;4.33;;;1.70;99.90;3.50;100569.00;;;;5051832;28;20186;-65
2023/12/01 17:47:02;;;;;;;2.77;2.10;;;1.60;99.90;3.20;100561.00;;;;5063142;28;20182;-65
2023/12/01 17:49:32;;;;;;;2.60;1.53;;;1.50;99.90;3.20;100565.00;;;;5051559;28;20186;-65
2023/12/01 17:52:07;;;;;;;2.40;2.30;;;1.50;99.90;3.60;100559.00;;;;5051868;28;20237;-65
2023/12/01 17:54:54;;;;;;;1.23;1.20;;;1.50;99.90;3.20;100566.00;;;;5051886;28;20185;-65
2023/12/01 17:57:20;;;;;;;4.90;2.30;;;1.40;99.90;3.30;100571.00;;;;5051119;28;20212;-65
2023/12/01 18:00:15;;;;;;;2.83;2.63;;;1.40;99.90;3.70;100567.00;;;;5052025;28;20182;-65
2023/12/01 18:03:03;;;;;;;0.30;0.30;;;1.30;99.90;3.50;100571.00;;;;5045413;28;20192;-65
2023/12/01 18:05:31;;;;;;;0.83;0.83;;;1.40;99.90;3.40;100576.00;;;;5045370;28;20191;-65
2023/12/01 18:07:58;;;;;;;1.67;1.57;;;1.40;99.90;2.90;100564.00;;;;5051955;28;20186;-65
2023/12/01 18:10:51;;;;;;;2.50;2.30;;;1.20;99.90;2.90;100560.00;;;;5068507;28;20193;-65
2023/12/01 18:14:02;;;;;;;3.30;3.03;;;1.10;99.90;3.30;100542.00;;;;5052266;28;20232;-65
2023/12/01 18:17:34;;;;;;;1.20;1.10;;;1.00;99.90;2.60;100581.00;;;;5052186;28;20181;-65
2023/12/01 18:20:56;;;;;;;1.30;1.30;;;1.00;99.90;3.40;100580.00;;;;5052444;28;20189;-65
2023/12/01 18:23:51;;;;;;;1.00;1.00;;;1.00;99.90;3.30;100582.00;;;;5052127;28;20206;-65
2023/12/01 18:26:45;;;;;;;0.20;0.20;;;1.00;99.90;3.00;100538.00;;;;5047296;28;20224;-65
2023/12/01 18:29:48;;;;;;;2.30;2.20;;;0.90;99.90;3.00;100594.00;;;;5049765;28;20273;-65
2023/12/01 18:32:32;;;;;;;1.90;1.53;;;0.90;99.90;3.00;100610.00;;;;5042862;28;20259;-65
2023/12/01 18:35:09;;;;;;;2.40;2.20;;;1.00;99.90;2.30;100579.00;;;;5052107;28;20202;-65
2023/12/01 18:37:35;;;;;;;1.73;1.73;;;0.70;99.90;2.60;100557.00;;;;5051582;28;20185;-65
2023/12/01 18:40:08;;;;;;;0.63;0.63;;;0.70;99.90;3.20;100592.00;;;;5051697;28;20185;-65
2023/12/01 18:42:55;;;;;;;1.07;1.07;;;0.80;99.90;2.70;100590.00;;;;5051941;28;20201;-65
2023/12/01 18:45:40;;;;;;;0.20;0.20;;;0.70;99.90;3.10;100594.00;;;;5051706;28;20186;-65
2023/12/01 18:49:00;;;;;;;1.57;1.50;;;0.80;99.90;3.20;100592.00;;;;5051259;28;20227;-65
2023/12/01 18:51:53;;;;;;;0.70;0.70;;;0.80;99.90;2.90;100592.00;;;;4987043;28;20544;-65
2023/12/01 18:54:55;;;;;;;0.20;0.20;;;0.70;99.90;3.60;100557.00;;;;5056635;28;20192;-65
2023/12/01 18:58:11;;;;;;;2.20;1.73;;;1.00;99.90;3.00;100583.00;;;;5055643;28;20193;-65
2023/12/01 19:00:57;;;;;;;1.20;0.87;;;0.90;99.90;2.80;100604.00;;;;5050069;28;20710;-65
2023/12/01 19:03:55;;;;;;;1.47;1.47;;;0.70;99.90;2.50;100613.00;;;;5071181;28;20300;-65
2023/12/01 19:06:35;;;;;;;6.23;1.67;;;0.60;99.90;3.60;100615.00;;;;5044358;28;20284;-65
2023/12/01 19:09:45;;;;;;;0.30;0.30;;;0.70;99.90;4.00;100624.00;;;;5054809;28;20194;-65
2023/12/01 19:12:14;;;;;;;0.70;0.70;;;0.80;99.90;3.60;100631.00;;;;5047865;28;20210;-65
2023/12/01 19:15:17;;;;;;;0.30;0.30;;;0.90;99.90;4.10;100629.00;;;;5055953;28;20194;-66
2023/12/01 19:17:43;;;;;;;0.30;0.30;;;1.00;99.90;3.70;100629.00;;;;5070577;28;20186;-65
2023/12/01 19:20:15;;;;;;;0.30;0.30;;;1.00;99.90;3.60;100604.00;;;;5058284;28;20214;-65
2023/12/01 19:23:07;;;;;;;0.30;0.30;;;0.90;99.90;3.10;100629.00;;;;5055919;28;20598;-65
2023/12/01 19:26:13;;;;;;;3.50;1.70;;;0.80;99.90;3.10;100633.00;;;;5043943;28;20202;-65
2023/12/01 19:29:02;;;;;;;1.13;1.13;;;0.60;99.90;3.00;100635.00;;;;5028500;28;20202;-65
2023/12/01 19:31:57;;;;;;;0.43;0.43;;;0.60;99.90;3.10;100626.00;;;;5054028;28;20186;-65
2023/12/01 19:34:46;;;;;;;0.30;0.30;;;0.60;99.90;2.80;100630.00;;;;5056312;28;20189;-65